sensor_id;sensor_type;location;lat;lon;timestamp;temperature;humidity
26326;DHT22;14032;52.510;7.342;2023-04-06T00:00:36;4.00;99.10
26326;DHT22;14032;52.510;7.342;2023-04-06T00:03:02;4.00;99.50
26326;DHT22;14032;52.510;7.342;2023-04-06T00:05:27;4.00;99.60
26326;DHT22;14032;52.510;7.342;2023-04-06T00:07:56;3.90;99.50
26326;DHT22;14032;52.510;7.342;2023-04-06T00:10:22;3.90;99.80
26326;DHT22;14032;52.510;7.342;2023-04-06T00:12:48;3.90;99.70
26326;DHT22;14032;52.510;7.342;2023-04-06T00:15:13;3.80;99.80
26326;DHT22;14032;52.510;7.342;2023-04-06T00:17:39;3.80;99.80
26326;DHT22;14032;52.510;7.342;2023-04-06T00:20:04;3.80;99.60
26326;DHT22;14032;52.510;7.342;2023-04-06T00:22:30;3.80;99.90
26326;DHT22;14032;52.510;7.342;2023-04-06T00:24:55;3.80;99.60
26326;DHT22;14032;52.510;7.342;2023-04-06T00:27:21;3.80;99.90
26326;DHT22;14032;52.510;7.342;2023-04-06T00:29:46;3.80;99.90
26326;DHT22;14032;52.510;7.342;2023-04-06T00:32:12;3.80;99.90
26326;DHT22;14032;52.510;7.342;2023-04-06T00:34:37;3.80;99.70
26326;DHT22;14032;52.510;7.342;2023-04-06T00:37:03;3.80;99.90
26326;DHT22;14032;52.510;7.342;2023-04-06T00:39:28;3.80;99.90
26326;DHT22;14032;52.510;7.342;2023-04-06T00:41:54;3.80;99.90
26326;DHT22;14032;52.510;7.342;2023-04-06T00:44:20;3.80;99.90
26326;DHT22;14032;52.510;7.342;2023-04-06T00:46:46;3.80;99.90
26326;DHT22;14032;52.510;7.342;2023-04-06T00:49:12;3.70;99.90
26326;DHT22;14032;52.510;7.342;2023-04-06T00:54:12;3.80;99.90
26326;DHT22;14032;52.510;7.342;2023-04-06T00:56:38;3.70;99.90
26326;DHT22;14032;52.510;7.342;2023-04-06T00:59:03;3.70;99.90
26326;DHT22;14032;52.510;7.342;2023-04-06T01:01:29;3.60;99.90
26326;DHT22;14032;52.510;7.342;2023-04-06T01:03:54;3.60;99.90
26326;DHT22;14032;52.510;7.342;2023-04-06T01:06:20;3.60;99.90
26326;DHT22;14032;52.510;7.342;2023-04-06T01:08:46;3.60;99.90
26326;DHT22;14032;52.510;7.342;2023-04-06T01:11:11;3.50;99.90
26326;DHT22;14032;52.510;7.342;2023-04-06T01:13:37;3.50;99.90
26326;DHT22;14032;52.510;7.342;2023-04-06T01:16:02;3.50;99.90
26326;DHT22;14032;52.510;7.342;2023-04-06T01:18:29;3.50;99.90
26326;DHT22;14032;52.510;7.342;2023-04-06T01:20:55;3.50;99.90
26326;DHT22;14032;52.510;7.342;2023-04-06T01:25:56;3.50;99.90
26326;DHT22;14032;52.510;7.342;2023-04-06T01:28:21;3.50;99.90
26326;DHT22;14032;52.510;7.342;2023-04-06T01:30:47;3.40;99.90
26326;DHT22;14032;52.510;7.342;2023-04-06T01:33:12;3.40;99.90
26326;DHT22;14032;52.510;7.342;2023-04-06T01:35:38;3.40;99.90
26326;DHT22;14032;52.510;7.342;2023-04-06T01:38:03;3.30;99.90
26326;DHT22;14032;52.510;7.342;2023-04-06T01:40:29;3.30;99.90
26326;DHT22;14032;52.510;7.342;2023-04-06T01:42:54;3.30;99.90
26326;DHT22;14032;52.510;7.342;2023-04-06T01:45:20;3.30;99.90
26326;DHT22;14032;52.510;7.342;2023-04-06T01:47:46;3.30;99.90
26326;DHT22;14032;52.510;7.342;2023-04-06T01:50:11;3.20;99.90
26326;DHT22;14032;52.510;7.342;2023-04-06T01:52:37;3.20;99.90
26326;DHT22;14032;52.510;7.342;2023-04-06T01:55:03;3.20;99.90
26326;DHT22;14032;52.510;7.342;2023-04-06T01:57:28;3.20;99.90
26326;DHT22;14032;52.510;7.342;2023-04-06T01:59:54;3.10;99.90
26326;DHT22;14032;52.510;7.342;2023-04-06T02:02:19;3.20;99.90
26326;DHT22;14032;52.510;7.342;2023-04-06T02:04:45;3.10;99.90
26326;DHT22;14032;52.510;7.342;2023-04-06T02:07:11;3.00;99.90
26326;DHT22;14032;52.510;7.342;2023-04-06T02:09:36;3.00;99.90
26326;DHT22;14032;52.510;7.342;2023-04-06T02:12:02;3.00;99.90
26326;DHT22;14032;52.510;7.342;2023-04-06T02:14:27;2.90;99.90
26326;DHT22;14032;52.510;7.342;2023-04-06T02:16:53;2.90;99.90
26326;DHT22;14032;52.510;7.342;2023-04-06T02:19:18;2.80;99.90
26326;DHT22;14032;52.510;7.342;2023-04-06T02:21:44;2.70;99.90
26326;DHT22;14032;52.510;7.342;2023-04-06T02:24:09;2.70;99.90
26326;DHT22;14032;52.510;7.342;2023-04-06T02:26:35;2.60;99.90
26326;DHT22;14032;52.510;7.342;2023-04-06T02:29:00;2.60;99.90
26326;DHT22;14032;52.510;7.342;2023-04-06T02:31:27;2.60;99.90
26326;DHT22;14032;52.510;7.342;2023-04-06T02:33:53;2.50;99.90
26326;DHT22;14032;52.510;7.342;2023-04-06T02:36:18;2.50;99.90
26326;DHT22;14032;52.510;7.342;2023-04-06T02:38:44;2.50;99.90
26326;DHT22;14032;52.510;7.342;2023-04-06T02:41:09;2.40;99.90
26326;DHT22;14032;52.510;7.342;2023-04-06T02:43:35;2.40;99.90
26326;DHT22;14032;52.510;7.342;2023-04-06T02:46:00;2.40;99.90
26326;DHT22;14032;52.510;7.342;2023-04-06T02:48:26;2.40;99.90
26326;DHT22;14032;52.510;7.342;2023-04-06T02:50:51;2.40;99.90
26326;DHT22;14032;52.510;7.342;2023-04-06T02:53:17;2.40;99.90
26326;DHT22;14032;52.510;7.342;2023-04-06T02:55:42;2.40;99.90
26326;DHT22;14032;52.510;7.342;2023-04-06T02:58:08;2.40;99.90
26326;DHT22;14032;52.510;7.342;2023-04-06T03:00:33;2.40;99.90
26326;DHT22;14032;52.510;7.342;2023-04-06T03:02:59;2.30;99.90
26326;DHT22;14032;52.510;7.342;2023-04-06T03:05:24;2.30;99.90
26326;DHT22;14032;52.510;7.342;2023-04-06T03:07:50;2.20;99.90
26326;DHT22;14032;52.510;7.342;2023-04-06T03:10:15;2.10;99.90
26326;DHT22;14032;52.510;7.342;2023-04-06T03:12:41;2.10;99.90
26326;DHT22;14032;52.510;7.342;2023-04-06T03:15:07;1.90;99.90
26326;DHT22;14032;52.510;7.342;2023-04-06T03:17:32;1.90;99.90
26326;DHT22;14032;52.510;7.342;2023-04-06T03:19:58;1.90;99.90
26326;DHT22;14032;52.510;7.342;2023-04-06T03:22:23;1.90;99.90
26326;DHT22;14032;52.510;7.342;2023-04-06T03:24:49;1.90;99.90
26326;DHT22;14032;52.510;7.342;2023-04-06T03:27:14;1.80;99.90
26326;DHT22;14032;52.510;7.342;2023-04-06T03:29:40;1.80;99.90
26326;DHT22;14032;52.510;7.342;2023-04-06T03:32:05;1.80;99.90
26326;DHT22;14032;52.510;7.342;2023-04-06T03:34:31;1.80;99.90
26326;DHT22;14032;52.510;7.342;2023-04-06T03:36:56;1.70;99.90
26326;DHT22;14032;52.510;7.342;2023-04-06T03:39:25;1.70;99.90
26326;DHT22;14032;52.510;7.342;2023-04-06T03:41:50;1.70;99.90
26326;DHT22;14032;52.510;7.342;2023-04-06T03:44:16;1.60;99.90
26326;DHT22;14032;52.510;7.342;2023-04-06T03:46:42;1.60;99.90
26326;DHT22;14032;52.510;7.342;2023-04-06T03:49:07;1.60;99.90
26326;DHT22;14032;52.510;7.342;2023-04-06T03:51:33;1.70;99.90
26326;DHT22;14032;52.510;7.342;2023-04-06T03:53:58;1.60;99.90
26326;DHT22;14032;52.510;7.342;2023-04-06T03:56:24;1.70;99.90
26326;DHT22;14032;52.510;7.342;2023-04-06T03:58:49;1.60;99.90
26326;DHT22;14032;52.510;7.342;2023-04-06T04:01:16;1.60;99.90
26326;DHT22;14032;52.510;7.342;2023-04-06T04:03:42;1.60;99.90
26326;DHT22;14032;52.510;7.342;2023-04-06T04:06:08;1.70;99.90
26326;DHT22;14032;52.510;7.342;2023-04-06T04:08:33;1.60;99.90
26326;DHT22;14032;52.510;7.342;2023-04-06T04:11:00;1.60;99.90
26326;DHT22;14032;52.510;7.342;2023-04-06T04:13:26;1.60;99.90
26326;DHT22;14032;52.510;7.342;2023-04-06T04:15:51;1.50;99.90
26326;DHT22;14032;52.510;7.342;2023-04-06T04:18:18;1.50;99.90
26326;DHT22;14032;52.510;7.342;2023-04-06T04:20:43;1.50;99.90
26326;DHT22;14032;52.510;7.342;2023-04-06T04:23:09;1.40;99.90
26326;DHT22;14032;52.510;7.342;2023-04-06T04:25:35;1.40;99.90
26326;DHT22;14032;52.510;7.342;2023-04-06T04:28:01;1.40;99.90
26326;DHT22;14032;52.510;7.342;2023-04-06T04:30:26;1.40;99.90
26326;DHT22;14032;52.510;7.342;2023-04-06T04:32:52;1.40;99.90
26326;DHT22;14032;52.510;7.342;2023-04-06T04:35:17;1.40;99.90
26326;DHT22;14032;52.510;7.342;2023-04-06T04:37:43;1.40;99.90
26326;DHT22;14032;52.510;7.342;2023-04-06T04:40:09;1.40;99.90
26326;DHT22;14032;52.510;7.342;2023-04-06T04:42:35;1.40;99.90
26326;DHT22;14032;52.510;7.342;2023-04-06T04:45:00;1.40;99.90
26326;DHT22;14032;52.510;7.342;2023-04-06T04:47:26;1.50;99.90
26326;DHT22;14032;52.510;7.342;2023-04-06T04:49:51;1.50;99.90
26326;DHT22;14032;52.510;7.342;2023-04-06T04:52:17;1.50;99.90
26326;DHT22;14032;52.510;7.342;2023-04-06T04:54:42;1.50;99.90
26326;DHT22;14032;52.510;7.342;2023-04-06T04:57:08;1.50;99.90
26326;DHT22;14032;52.510;7.342;2023-04-06T04:59:34;1.50;99.90
26326;DHT22;14032;52.510;7.342;2023-04-06T05:01:59;1.40;99.90
26326;DHT22;14032;52.510;7.342;2023-04-06T05:04:25;1.50;99.90
26326;DHT22;14032;52.510;7.342;2023-04-06T05:07:01;1.50;99.90
26326;DHT22;14032;52.510;7.342;2023-04-06T05:09:27;1.50;99.90
26326;DHT22;14032;52.510;7.342;2023-04-06T05:11:54;1.60;99.90
26326;DHT22;14032;52.510;7.342;2023-04-06T05:14:19;1.70;99.90
26326;DHT22;14032;52.510;7.342;2023-04-06T05:16:45;1.80;99.90
26326;DHT22;14032;52.510;7.342;2023-04-06T05:19:10;1.80;99.90
26326;DHT22;14032;52.510;7.342;2023-04-06T05:21:36;1.90;99.90
26326;DHT22;14032;52.510;7.342;2023-04-06T05:24:02;2.00;99.90
26326;DHT22;14032;52.510;7.342;2023-04-06T05:26:27;2.10;99.90
26326;DHT22;14032;52.510;7.342;2023-04-06T05:28:53;2.20;99.90
26326;DHT22;14032;52.510;7.342;2023-04-06T05:31:19;2.20;99.90
26326;DHT22;14032;52.510;7.342;2023-04-06T05:33:45;2.30;99.90
26326;DHT22;14032;52.510;7.342;2023-04-06T05:36:10;2.40;99.90
26326;DHT22;14032;52.510;7.342;2023-04-06T05:38:37;2.40;99.90
26326;DHT22;14032;52.510;7.342;2023-04-06T05:41:02;2.50;99.90
26326;DHT22;14032;52.510;7.342;2023-04-06T05:43:28;2.60;99.90
26326;DHT22;14032;52.510;7.342;2023-04-06T05:45:53;2.70;99.90
26326;DHT22;14032;52.510;7.342;2023-04-06T05:48:19;2.70;99.90
26326;DHT22;14032;52.510;7.342;2023-04-06T05:50:47;2.80;99.90
26326;DHT22;14032;52.510;7.342;2023-04-06T05:53:13;2.80;99.90
26326;DHT22;14032;52.510;7.342;2023-04-06T05:55:38;2.90;99.90
26326;DHT22;14032;52.510;7.342;2023-04-06T05:58:04;3.00;99.90
26326;DHT22;14032;52.510;7.342;2023-04-06T06:00:29;3.00;99.90
26326;DHT22;14032;52.510;7.342;2023-04-06T06:02:58;3.10;99.90
26326;DHT22;14032;52.510;7.342;2023-04-06T06:05:23;3.20;99.90
26326;DHT22;14032;52.510;7.342;2023-04-06T06:07:49;3.30;99.90
26326;DHT22;14032;52.510;7.342;2023-04-06T06:10:14;3.40;99.90
26326;DHT22;14032;52.510;7.342;2023-04-06T06:12:40;3.50;99.90
26326;DHT22;14032;52.510;7.342;2023-04-06T06:15:06;3.60;99.90
26326;DHT22;14032;52.510;7.342;2023-04-06T06:17:31;3.70;99.90
26326;DHT22;14032;52.510;7.342;2023-04-06T06:19:57;3.80;99.90
26326;DHT22;14032;52.510;7.342;2023-04-06T06:22:22;3.90;99.90
26326;DHT22;14032;52.510;7.342;2023-04-06T06:24:48;4.00;99.90
26326;DHT22;14032;52.510;7.342;2023-04-06T06:27:15;4.20;99.90
26326;DHT22;14032;52.510;7.342;2023-04-06T06:29:40;4.30;99.90
26326;DHT22;14032;52.510;7.342;2023-04-06T06:32:06;4.50;99.90
26326;DHT22;14032;52.510;7.342;2023-04-06T06:34:34;4.60;99.90
26326;DHT22;14032;52.510;7.342;2023-04-06T06:37:00;4.60;99.90
26326;DHT22;14032;52.510;7.342;2023-04-06T06:39:25;4.70;99.90
26326;DHT22;14032;52.510;7.342;2023-04-06T06:41:51;4.80;99.90
26326;DHT22;14032;52.510;7.342;2023-04-06T06:44:17;5.00;99.90
26326;DHT22;14032;52.510;7.342;2023-04-06T06:46:42;5.00;99.90
26326;DHT22;14032;52.510;7.342;2023-04-06T06:49:08;5.10;99.90
26326;DHT22;14032;52.510;7.342;2023-04-06T06:51:33;5.20;99.90
26326;DHT22;14032;52.510;7.342;2023-04-06T06:53:59;5.30;99.90
26326;DHT22;14032;52.510;7.342;2023-04-06T06:56:25;5.40;99.90
26326;DHT22;14032;52.510;7.342;2023-04-06T06:58:51;5.50;99.90
26326;DHT22;14032;52.510;7.342;2023-04-06T07:01:17;5.60;99.90
26326;DHT22;14032;52.510;7.342;2023-04-06T07:03:42;5.60;99.90
26326;DHT22;14032;52.510;7.342;2023-04-06T07:06:08;5.80;99.90
26326;DHT22;14032;52.510;7.342;2023-04-06T07:08:33;5.80;99.90
26326;DHT22;14032;52.510;7.342;2023-04-06T07:10:59;6.00;99.90
26326;DHT22;14032;52.510;7.342;2023-04-06T07:13:25;6.00;99.90
26326;DHT22;14032;52.510;7.342;2023-04-06T07:15:52;6.10;99.90
26326;DHT22;14032;52.510;7.342;2023-04-06T07:18:18;6.10;99.90
26326;DHT22;14032;52.510;7.342;2023-04-06T07:20:43;6.20;99.90
26326;DHT22;14032;52.510;7.342;2023-04-06T07:23:09;6.30;99.90
26326;DHT22;14032;52.510;7.342;2023-04-06T07:25:35;6.40;99.90
26326;DHT22;14032;52.510;7.342;2023-04-06T07:28:01;6.30;99.90
26326;DHT22;14032;52.510;7.342;2023-04-06T07:30:27;6.30;99.90
26326;DHT22;14032;52.510;7.342;2023-04-06T07:32:54;6.40;99.90
26326;DHT22;14032;52.510;7.342;2023-04-06T07:35:21;6.40;99.90
26326;DHT22;14032;52.510;7.342;2023-04-06T07:37:46;6.50;99.90
26326;DHT22;14032;52.510;7.342;2023-04-06T07:40:12;6.50;99.90
26326;DHT22;14032;52.510;7.342;2023-04-06T07:42:37;6.50;99.90
26326;DHT22;14032;52.510;7.342;2023-04-06T07:45:03;6.50;99.90
26326;DHT22;14032;52.510;7.342;2023-04-06T07:47:28;6.60;99.90
26326;DHT22;14032;52.510;7.342;2023-04-06T07:49:54;6.70;99.90
26326;DHT22;14032;52.510;7.342;2023-04-06T07:52:21;6.70;99.90
26326;DHT22;14032;52.510;7.342;2023-04-06T07:54:46;6.70;99.90
26326;DHT22;14032;52.510;7.342;2023-04-06T07:57:14;6.80;99.90
26326;DHT22;14032;52.510;7.342;2023-04-06T07:59:40;6.80;99.90
26326;DHT22;14032;52.510;7.342;2023-04-06T08:02:05;6.80;99.90
26326;DHT22;14032;52.510;7.342;2023-04-06T08:04:31;6.80;99.90
26326;DHT22;14032;52.510;7.342;2023-04-06T08:06:56;6.90;99.90
26326;DHT22;14032;52.510;7.342;2023-04-06T08:09:22;6.90;99.90
26326;DHT22;14032;52.510;7.342;2023-04-06T08:11:47;7.00;99.90
26326;DHT22;14032;52.510;7.342;2023-04-06T08:14:14;7.10;99.90
26326;DHT22;14032;52.510;7.342;2023-04-06T08:16:40;7.10;99.90
26326;DHT22;14032;52.510;7.342;2023-04-06T08:19:06;7.20;99.90
26326;DHT22;14032;52.510;7.342;2023-04-06T08:21:37;7.30;99.90
26326;DHT22;14032;52.510;7.342;2023-04-06T08:24:03;7.40;99.90
26326;DHT22;14032;52.510;7.342;2023-04-06T08:26:28;7.60;99.90
26326;DHT22;14032;52.510;7.342;2023-04-06T08:28:54;7.70;99.90
26326;DHT22;14032;52.510;7.342;2023-04-06T08:31:19;7.80;99.90
26326;DHT22;14032;52.510;7.342;2023-04-06T08:33:45;7.90;99.90
26326;DHT22;14032;52.510;7.342;2023-04-06T08:36:11;8.10;99.90
26326;DHT22;14032;52.510;7.342;2023-04-06T08:38:37;8.20;99.90
26326;DHT22;14032;52.510;7.342;2023-04-06T08:41:06;8.30;99.90
26326;DHT22;14032;52.510;7.342;2023-04-06T08:43:32;8.50;99.90
26326;DHT22;14032;52.510;7.342;2023-04-06T08:45:58;8.60;99.90
26326;DHT22;14032;52.510;7.342;2023-04-06T08:48:24;8.70;99.90
26326;DHT22;14032;52.510;7.342;2023-04-06T08:50:50;8.80;99.90
26326;DHT22;14032;52.510;7.342;2023-04-06T08:53:16;8.90;99.90
26326;DHT22;14032;52.510;7.342;2023-04-06T08:55:42;9.00;99.90
26326;DHT22;14032;52.510;7.342;2023-04-06T08:58:08;9.10;99.90
26326;DHT22;14032;52.510;7.342;2023-04-06T09:00:36;9.20;99.70
26326;DHT22;14032;52.510;7.342;2023-04-06T09:03:02;9.30;99.90
26326;DHT22;14032;52.510;7.342;2023-04-06T09:05:28;9.30;99.50
26326;DHT22;14032;52.510;7.342;2023-04-06T09:07:54;9.40;99.60
26326;DHT22;14032;52.510;7.342;2023-04-06T09:10:20;9.50;99.40
26326;DHT22;14032;52.510;7.342;2023-04-06T09:12:48;9.60;99.20
26326;DHT22;14032;52.510;7.342;2023-04-06T09:15:17;9.70;98.90
26326;DHT22;14032;52.510;7.342;2023-04-06T09:17:43;9.80;98.80
26326;DHT22;14032;52.510;7.342;2023-04-06T09:20:09;9.90;98.40
26326;DHT22;14032;52.510;7.342;2023-04-06T09:22:35;10.00;97.40
26326;DHT22;14032;52.510;7.342;2023-04-06T09:25:00;10.20;96.50
26326;DHT22;14032;52.510;7.342;2023-04-06T09:27:30;10.20;95.50
26326;DHT22;14032;52.510;7.342;2023-04-06T09:30:08;10.20;96.00
26326;DHT22;14032;52.510;7.342;2023-04-06T09:32:44;10.30;96.00
26326;DHT22;14032;52.510;7.342;2023-04-06T09:35:11;10.40;96.30
26326;DHT22;14032;52.510;7.342;2023-04-06T09:37:36;10.50;95.10
26326;DHT22;14032;52.510;7.342;2023-04-06T09:40:05;10.50;95.50
26326;DHT22;14032;52.510;7.342;2023-04-06T09:42:32;10.60;94.30
26326;DHT22;14032;52.510;7.342;2023-04-06T09:44:58;10.70;94.40
26326;DHT22;14032;52.510;7.342;2023-04-06T09:47:23;10.80;94.60
26326;DHT22;14032;52.510;7.342;2023-04-06T09:49:50;10.90;93.60
26326;DHT22;14032;52.510;7.342;2023-04-06T09:52:19;11.00;93.90
26326;DHT22;14032;52.510;7.342;2023-04-06T09:54:46;11.10;93.50
26326;DHT22;14032;52.510;7.342;2023-04-06T09:57:20;11.10;92.30
26326;DHT22;14032;52.510;7.342;2023-04-06T09:59:50;11.10;93.60
26326;DHT22;14032;52.510;7.342;2023-04-06T10:02:39;11.30;92.50
26326;DHT22;14032;52.510;7.342;2023-04-06T10:05:05;11.40;92.50
26326;DHT22;14032;52.510;7.342;2023-04-06T10:07:33;11.50;92.70
26326;DHT22;14032;52.510;7.342;2023-04-06T10:09:59;11.70;92.60
26326;DHT22;14032;52.510;7.342;2023-04-06T10:12:25;11.80;91.50
26326;DHT22;14032;52.510;7.342;2023-04-06T10:14:51;11.80;91.80
26326;DHT22;14032;52.510;7.342;2023-04-06T10:17:16;11.70;91.10
26326;DHT22;14032;52.510;7.342;2023-04-06T10:20:06;11.70;91.70
26326;DHT22;14032;52.510;7.342;2023-04-06T10:25:30;11.60;91.20
26326;DHT22;14032;52.510;7.342;2023-04-06T10:28:00;11.50;91.30
26326;DHT22;14032;52.510;7.342;2023-04-06T10:30:26;11.50;91.20
26326;DHT22;14032;52.510;7.342;2023-04-06T10:32:52;11.50;89.70
26326;DHT22;14032;52.510;7.342;2023-04-06T10:35:17;11.50;90.20
26326;DHT22;14032;52.510;7.342;2023-04-06T10:37:50;11.40;90.00
26326;DHT22;14032;52.510;7.342;2023-04-06T10:40:22;11.40;90.60
26326;DHT22;14032;52.510;7.342;2023-04-06T10:42:48;11.50;91.30
26326;DHT22;14032;52.510;7.342;2023-04-06T10:45:21;11.60;90.90
26326;DHT22;14032;52.510;7.342;2023-04-06T10:47:46;11.60;91.70
26326;DHT22;14032;52.510;7.342;2023-04-06T10:50:15;11.70;90.70
26326;DHT22;14032;52.510;7.342;2023-04-06T10:52:43;11.70;90.90
26326;DHT22;14032;52.510;7.342;2023-04-06T10:55:09;11.70;91.20
26326;DHT22;14032;52.510;7.342;2023-04-06T10:57:37;11.80;90.80
26326;DHT22;14032;52.510;7.342;2023-04-06T11:00:06;11.80;90.80
26326;DHT22;14032;52.510;7.342;2023-04-06T11:02:32;11.80;91.20
26326;DHT22;14032;52.510;7.342;2023-04-06T11:04:58;11.80;90.80
26326;DHT22;14032;52.510;7.342;2023-04-06T11:07:27;11.90;90.00
26326;DHT22;14032;52.510;7.342;2023-04-06T11:09:54;11.80;86.70
26326;DHT22;14032;52.510;7.342;2023-04-06T11:12:23;11.80;87.80
26326;DHT22;14032;52.510;7.342;2023-04-06T11:14:54;11.70;86.60
26326;DHT22;14032;52.510;7.342;2023-04-06T11:17:25;11.70;87.20
26326;DHT22;14032;52.510;7.342;2023-04-06T11:19:51;11.60;87.40
26326;DHT22;14032;52.510;7.342;2023-04-06T11:22:16;11.60;87.90
26326;DHT22;14032;52.510;7.342;2023-04-06T11:24:42;11.60;89.40
26326;DHT22;14032;52.510;7.342;2023-04-06T11:27:07;11.50;88.50
26326;DHT22;14032;52.510;7.342;2023-04-06T11:29:33;11.50;89.00
26326;DHT22;14032;52.510;7.342;2023-04-06T11:32:05;11.50;88.80
26326;DHT22;14032;52.510;7.342;2023-04-06T11:34:37;11.50;88.10
26326;DHT22;14032;52.510;7.342;2023-04-06T11:37:06;11.60;91.10
26326;DHT22;14032;52.510;7.342;2023-04-06T11:39:36;11.60;90.10
26326;DHT22;14032;52.510;7.342;2023-04-06T11:42:02;11.70;91.00
26326;DHT22;14032;52.510;7.342;2023-04-06T11:44:29;11.80;90.60
26326;DHT22;14032;52.510;7.342;2023-04-06T11:46:56;12.00;90.40
26326;DHT22;14032;52.510;7.342;2023-04-06T11:49:26;12.10;90.50
26326;DHT22;14032;52.510;7.342;2023-04-06T11:51:51;12.30;90.30
26326;DHT22;14032;52.510;7.342;2023-04-06T11:54:17;12.30;90.30
26326;DHT22;14032;52.510;7.342;2023-04-06T11:56:45;12.40;89.40
26326;DHT22;14032;52.510;7.342;2023-04-06T11:59:11;12.50;90.10
26326;DHT22;14032;52.510;7.342;2023-04-06T12:01:44;12.50;88.40
26326;DHT22;14032;52.510;7.342;2023-04-06T12:04:10;12.50;88.50
26326;DHT22;14032;52.510;7.342;2023-04-06T12:06:35;12.60;88.20
26326;DHT22;14032;52.510;7.342;2023-04-06T12:09:01;12.60;87.30
26326;DHT22;14032;52.510;7.342;2023-04-06T12:11:26;12.50;87.20
26326;DHT22;14032;52.510;7.342;2023-04-06T12:13:52;12.50;87.40
26326;DHT22;14032;52.510;7.342;2023-04-06T12:16:18;12.50;87.90
26326;DHT22;14032;52.510;7.342;2023-04-06T12:18:44;12.50;85.50
26326;DHT22;14032;52.510;7.342;2023-04-06T12:21:10;12.50;87.10
26326;DHT22;14032;52.510;7.342;2023-04-06T12:23:35;12.50;85.00
26326;DHT22;14032;52.510;7.342;2023-04-06T12:26:01;12.40;84.40
26326;DHT22;14032;52.510;7.342;2023-04-06T12:28:28;12.40;87.40
26326;DHT22;14032;52.510;7.342;2023-04-06T12:30:55;12.50;84.90
26326;DHT22;14032;52.510;7.342;2023-04-06T12:33:20;12.40;84.70
26326;DHT22;14032;52.510;7.342;2023-04-06T12:35:46;12.40;85.80
26326;DHT22;14032;52.510;7.342;2023-04-06T12:38:12;12.40;87.40
26326;DHT22;14032;52.510;7.342;2023-04-06T12:40:38;12.40;86.70
26326;DHT22;14032;52.510;7.342;2023-04-06T12:43:03;12.50;86.40
26326;DHT22;14032;52.510;7.342;2023-04-06T12:45:30;12.50;85.50
26326;DHT22;14032;52.510;7.342;2023-04-06T12:47:55;12.40;85.60
26326;DHT22;14032;52.510;7.342;2023-04-06T12:50:21;12.40;83.70
26326;DHT22;14032;52.510;7.342;2023-04-06T12:52:47;12.40;86.90
26326;DHT22;14032;52.510;7.342;2023-04-06T12:55:12;12.40;87.50
26326;DHT22;14032;52.510;7.342;2023-04-06T12:57:38;12.40;86.20
26326;DHT22;14032;52.510;7.342;2023-04-06T13:00:04;12.40;86.00
26326;DHT22;14032;52.510;7.342;2023-04-06T13:02:30;12.50;87.20
26326;DHT22;14032;52.510;7.342;2023-04-06T13:04:56;12.50;84.90
26326;DHT22;14032;52.510;7.342;2023-04-06T13:07:21;12.50;87.20
26326;DHT22;14032;52.510;7.342;2023-04-06T13:09:47;12.60;85.50
26326;DHT22;14032;52.510;7.342;2023-04-06T13:12:15;12.60;84.70
26326;DHT22;14032;52.510;7.342;2023-04-06T13:14:40;12.60;84.20
26326;DHT22;14032;52.510;7.342;2023-04-06T13:17:06;12.70;86.30
26326;DHT22;14032;52.510;7.342;2023-04-06T13:19:32;12.80;86.10
26326;DHT22;14032;52.510;7.342;2023-04-06T13:21:57;12.80;85.10
26326;DHT22;14032;52.510;7.342;2023-04-06T13:24:23;12.90;85.20
26326;DHT22;14032;52.510;7.342;2023-04-06T13:26:48;12.80;84.90
26326;DHT22;14032;52.510;7.342;2023-04-06T13:29:14;12.80;84.30
26326;DHT22;14032;52.510;7.342;2023-04-06T13:31:40;12.80;83.70
26326;DHT22;14032;52.510;7.342;2023-04-06T13:34:06;12.80;86.10
26326;DHT22;14032;52.510;7.342;2023-04-06T13:36:31;12.80;85.00
26326;DHT22;14032;52.510;7.342;2023-04-06T13:38:57;12.80;83.60
26326;DHT22;14032;52.510;7.342;2023-04-06T13:41:24;12.80;85.40
26326;DHT22;14032;52.510;7.342;2023-04-06T13:43:50;12.80;86.30
26326;DHT22;14032;52.510;7.342;2023-04-06T13:46:16;12.80;83.90
26326;DHT22;14032;52.510;7.342;2023-04-06T13:48:42;12.80;84.70
26326;DHT22;14032;52.510;7.342;2023-04-06T13:51:11;12.70;85.00
26326;DHT22;14032;52.510;7.342;2023-04-06T13:53:37;12.70;87.50
26326;DHT22;14032;52.510;7.342;2023-04-06T13:56:03;12.80;86.50
26326;DHT22;14032;52.510;7.342;2023-04-06T13:58:28;12.80;86.60
26326;DHT22;14032;52.510;7.342;2023-04-06T14:00:54;12.70;85.40
26326;DHT22;14032;52.510;7.342;2023-04-06T14:03:21;12.80;85.60
26326;DHT22;14032;52.510;7.342;2023-04-06T14:05:47;12.70;87.40
26326;DHT22;14032;52.510;7.342;2023-04-06T14:08:12;12.70;86.50
26326;DHT22;14032;52.510;7.342;2023-04-06T14:10:38;12.80;86.50
26326;DHT22;14032;52.510;7.342;2023-04-06T14:13:05;12.70;86.70
26326;DHT22;14032;52.510;7.342;2023-04-06T14:15:30;12.70;86.90
26326;DHT22;14032;52.510;7.342;2023-04-06T14:17:56;12.70;87.80
26326;DHT22;14032;52.510;7.342;2023-04-06T14:20:21;12.80;87.30
26326;DHT22;14032;52.510;7.342;2023-04-06T14:22:47;12.70;86.70
26326;DHT22;14032;52.510;7.342;2023-04-06T14:25:14;12.70;87.60
26326;DHT22;14032;52.510;7.342;2023-04-06T14:27:41;12.70;87.00
26326;DHT22;14032;52.510;7.342;2023-04-06T14:30:07;12.70;89.10
26326;DHT22;14032;52.510;7.342;2023-04-06T14:32:33;12.70;90.00
26326;DHT22;14032;52.510;7.342;2023-04-06T14:34:59;12.70;87.80
26326;DHT22;14032;52.510;7.342;2023-04-06T14:37:24;12.60;87.60
26326;DHT22;14032;52.510;7.342;2023-04-06T14:39:50;12.60;88.40
26326;DHT22;14032;52.510;7.342;2023-04-06T14:42:15;12.60;87.10
26326;DHT22;14032;52.510;7.342;2023-04-06T14:44:41;12.60;86.50
26326;DHT22;14032;52.510;7.342;2023-04-06T14:47:08;12.60;86.50
26326;DHT22;14032;52.510;7.342;2023-04-06T14:49:34;12.60;88.60
26326;DHT22;14032;52.510;7.342;2023-04-06T14:51:59;12.50;87.40
26326;DHT22;14032;52.510;7.342;2023-04-06T14:54:25;12.50;87.90
26326;DHT22;14032;52.510;7.342;2023-04-06T14:56:50;12.50;88.10
26326;DHT22;14032;52.510;7.342;2023-04-06T14:59:16;12.50;87.90
26326;DHT22;14032;52.510;7.342;2023-04-06T15:01:41;12.50;87.30
26326;DHT22;14032;52.510;7.342;2023-04-06T15:04:07;12.50;88.40
26326;DHT22;14032;52.510;7.342;2023-04-06T15:06:32;12.40;88.90
26326;DHT22;14032;52.510;7.342;2023-04-06T15:08:58;12.30;89.80
26326;DHT22;14032;52.510;7.342;2023-04-06T15:11:24;12.40;90.30
26326;DHT22;14032;52.510;7.342;2023-04-06T15:13:50;12.30;90.80
26326;DHT22;14032;52.510;7.342;2023-04-06T15:16:16;12.30;90.60
26326;DHT22;14032;52.510;7.342;2023-04-06T15:18:41;12.20;91.30
26326;DHT22;14032;52.510;7.342;2023-04-06T15:21:07;12.20;91.70
26326;DHT22;14032;52.510;7.342;2023-04-06T15:23:32;12.20;91.50
26326;DHT22;14032;52.510;7.342;2023-04-06T15:25:59;12.10;91.90
26326;DHT22;14032;52.510;7.342;2023-04-06T15:28:27;12.10;91.70
26326;DHT22;14032;52.510;7.342;2023-04-06T15:30:54;12.00;92.10
26326;DHT22;14032;52.510;7.342;2023-04-06T15:33:20;12.00;92.40
26326;DHT22;14032;52.510;7.342;2023-04-06T15:35:46;12.00;92.00
26326;DHT22;14032;52.510;7.342;2023-04-06T15:38:11;11.90;92.00
26326;DHT22;14032;52.510;7.342;2023-04-06T15:40:43;11.90;92.90